createdAt,value
2019-05-10T00:00:18.816Z,93.39
2019-05-10T00:01:18.811Z,93.39
2019-05-10T00:02:18.797Z,93.39
2019-05-10T00:03:18.785Z,93.49
2019-05-10T00:04:18.767Z,93.08
2019-05-10T00:05:18.787Z,93.19
2019-05-10T00:06:18.749Z,93.39
2019-05-10T00:07:18.738Z,92.98
2019-05-10T00:08:18.724Z,92.88
2019-05-10T00:09:18.711Z,93.80
2019-05-10T00:10:18.704Z,93.80
2019-05-10T00:11:18.705Z,93.39
2019-05-10T00:12:18.686Z,93.45
2019-05-10T00:13:18.698Z,93.39
2019-05-10T00:14:18.693Z,93.55
2019-05-10T00:15:18.660Z,93.25
2019-05-10T00:16:18.674Z,93.29
2019-05-10T00:17:18.619Z,93.76
2019-05-10T00:18:18.606Z,93.76
2019-05-10T00:19:18.595Z,93.55
2019-05-10T00:20:18.593Z,93.45
2019-05-10T00:21:18.591Z,93.92
2019-05-10T00:22:18.614Z,93.45
2019-05-10T00:23:18.558Z,93.45
2019-05-10T00:24:18.541Z,93.76
2019-05-10T00:25:18.527Z,93.76
2019-05-10T00:26:18.525Z,93.76
2019-05-10T00:27:18.513Z,93.25
2019-05-10T00:28:18.507Z,93.35
2019-05-10T00:29:18.487Z,93.35
2019-05-10T00:30:18.484Z,93.51
2019-05-10T00:31:18.469Z,93.66
2019-05-10T00:32:18.461Z,93.76
2019-05-10T00:33:18.484Z,93.35
2019-05-10T00:34:18.442Z,93.04
2019-05-10T00:35:18.423Z,93.76
2019-05-10T00:36:18.408Z,93.76
2019-05-10T00:37:18.397Z,92.94
2019-05-10T00:38:18.381Z,93.04
2019-05-10T00:39:19.579Z,92.94
2019-05-10T00:40:18.363Z,92.94
2019-05-10T00:41:18.359Z,93.66
2019-05-10T00:42:18.342Z,93.55
2019-05-10T00:43:18.355Z,93.66
2019-05-10T00:44:18.316Z,93.76
2019-05-10T00:45:18.312Z,93.45
2019-05-10T00:46:18.296Z,93.35
2019-05-10T00:47:18.281Z,93.45
2019-05-10T00:48:18.275Z,93.45
2019-05-10T00:49:18.273Z,93.62
2019-05-10T00:50:18.244Z,93.86
2019-05-10T00:51:18.234Z,93.86
2019-05-10T00:52:18.225Z,93.55
2019-05-10T00:53:18.218Z,93.76
2019-05-10T00:54:18.217Z,93.30
2019-05-10T00:55:19.520Z,93.30
2019-05-10T00:56:18.181Z,93.51
2019-05-10T00:57:18.236Z,93.51
2019-05-10T00:58:18.157Z,93.51
2019-05-10T00:59:18.146Z,93.30
2019-05-10T01:00:18.136Z,93.51
2019-05-10T01:01:18.758Z,93.62
2019-05-10T01:02:18.114Z,93.30
2019-05-10T01:03:18.122Z,93.51
2019-05-10T01:04:18.102Z,93.41
2019-05-10T01:05:18.086Z,93.41
2019-05-10T01:06:18.064Z,93.30
2019-05-10T01:07:18.063Z,93.30
2019-05-10T01:08:18.089Z,93.30
2019-05-10T01:09:18.074Z,93.62
2019-05-10T01:10:18.081Z,93.62
2019-05-10T01:11:18.012Z,93.30
2019-05-10T01:12:18.002Z,93.10
2019-05-10T01:13:17.988Z,93.30
2019-05-10T01:14:17.979Z,93.20
2019-05-10T01:15:17.961Z,93.10
2019-05-10T01:16:17.969Z,93.71
2019-05-10T01:17:17.935Z,93.62
2019-05-10T01:18:17.928Z,92.79
2019-05-10T01:19:17.918Z,92.90
2019-05-10T01:20:17.927Z,93.00
2019-05-10T01:21:17.890Z,93.10
2019-05-10T01:22:17.879Z,93.10
2019-05-10T01:23:17.880Z,93.04
2019-05-10T01:24:17.860Z,93.00
2019-05-10T01:25:33.730Z,93.00
2019-05-10T01:26:18.853Z,93.10
2019-05-10T01:27:17.836Z,93.00
2019-05-10T01:28:17.810Z,93.15
2019-05-10T01:29:17.807Z,93.04
2019-05-10T01:30:17.793Z,93.25
2019-05-10T01:31:17.798Z,92.94
2019-05-10T01:32:17.773Z,93.25
2019-05-10T01:33:17.767Z,93.66
2019-05-10T01:34:17.747Z,93.55
2019-05-10T01:35:17.741Z,93.25
2019-05-10T01:36:17.754Z,93.35
2019-05-10T01:37:17.717Z,93.35
2019-05-10T01:38:17.708Z,93.35
2019-05-10T01:39:17.692Z,93.45
2019-05-10T01:40:17.675Z,93.35
2019-05-10T01:41:17.672Z,93.55
2019-05-10T01:42:17.687Z,93.45
2019-05-10T01:43:17.641Z,93.41
2019-05-10T01:44:17.638Z,93.62
2019-05-10T01:45:17.620Z,93.71
2019-05-10T01:46:17.628Z,93.71
2019-05-10T01:47:17.595Z,93.51
2019-05-10T01:48:17.596Z,93.25
2019-05-10T01:49:17.577Z,93.30
2019-05-10T01:50:17.582Z,92.90
2019-05-10T01:51:17.554Z,92.90
2019-05-10T01:52:17.542Z,93.15
2019-05-10T01:53:17.546Z,92.90
2019-05-10T01:54:17.522Z,93.10
2019-05-10T01:55:17.511Z,93.10
2019-05-10T01:56:17.494Z,93.10
2019-05-10T01:57:17.482Z,93.30
2019-05-10T01:58:17.485Z,93.35
2019-05-10T01:59:17.482Z,92.79
2019-05-10T02:00:17.449Z,92.59
2019-05-10T02:01:17.441Z,92.28
2019-05-10T02:02:17.423Z,92.28
2019-05-10T02:03:17.430Z,92.18
2019-05-10T02:04:18.026Z,92.38
2019-05-10T02:05:17.397Z,92.49
2019-05-10T02:06:17.385Z,92.53
2019-05-10T02:07:17.423Z,91.97
2019-05-10T02:08:17.375Z,91.87
2019-05-10T02:09:17.346Z,91.67
2019-05-10T02:10:17.331Z,91.56
2019-05-10T02:11:17.324Z,91.36
2019-05-10T02:12:17.316Z,91.77
2019-05-10T02:13:17.307Z,90.84
2019-05-10T02:14:17.291Z,91.05
2019-05-10T02:15:17.285Z,91.67
2019-05-10T02:16:17.267Z,91.36
2019-05-10T02:17:17.259Z,90.54
2019-05-10T02:18:17.254Z,90.75
2019-05-10T02:19:17.244Z,90.13
2019-05-10T02:20:17.224Z,90.44
2019-05-10T02:21:17.213Z,90.23
2019-05-10T02:22:17.195Z,89.83
2019-05-10T02:23:17.209Z,89.31
2019-05-10T02:24:17.178Z,89.92
2019-05-10T02:25:17.158Z,89.72
2019-05-10T02:26:17.159Z,88.80
2019-05-10T02:27:17.142Z,88.59
2019-05-10T02:28:17.147Z,88.76
2019-05-10T02:29:17.123Z,88.49
2019-05-10T02:30:17.108Z,88.18
2019-05-10T02:31:21.251Z,88.29
2019-05-10T02:32:17.085Z,88.59
2019-05-10T02:33:17.070Z,88.39
2019-05-10T02:34:17.073Z,87.88
2019-05-10T02:35:17.073Z,87.77
2019-05-10T02:36:17.049Z,87.63
2019-05-10T02:37:17.033Z,87.32
2019-05-10T02:38:17.015Z,87.73
2019-05-10T02:39:17.012Z,87.02
2019-05-10T02:40:16.990Z,86.71
2019-05-10T02:41:16.987Z,86.61
2019-05-10T02:42:16.968Z,85.99
2019-05-10T02:43:16.956Z,85.99
2019-05-10T02:44:16.948Z,86.36
2019-05-10T02:45:16.959Z,85.69
2019-05-10T02:46:16.919Z,85.69
2019-05-10T02:47:16.917Z,85.79
2019-05-10T02:48:16.918Z,85.99
2019-05-10T02:49:16.892Z,86.10
2019-05-10T02:50:16.908Z,85.79
2019-05-10T02:51:16.871Z,85.79
2019-05-10T02:52:16.855Z,85.75
2019-05-10T02:53:16.841Z,85.85
2019-05-10T02:54:16.829Z,85.89
2019-05-10T02:55:16.830Z,85.96
2019-05-10T02:56:29.617Z,85.79
2019-05-10T02:57:17.793Z,85.85
2019-05-10T02:58:16.787Z,85.64
2019-05-10T02:59:16.779Z,85.34
2019-05-10T03:00:16.784Z,85.24
2019-05-10T03:01:16.746Z,85.34
2019-05-10T03:02:16.739Z,85.69
2019-05-10T03:03:16.730Z,85.64
2019-05-10T03:04:16.715Z,85.34
2019-05-10T03:05:16.800Z,85.34
2019-05-10T03:06:16.705Z,85.48
2019-05-10T03:07:16.688Z,85.14
2019-05-10T03:08:16.720Z,85.07
2019-05-10T03:09:16.655Z,85.24
2019-05-10T03:10:16.652Z,85.03
2019-05-10T03:11:16.647Z,85.03
2019-05-10T03:12:16.689Z,85.14
2019-05-10T03:13:16.613Z,85.34
2019-05-10T03:14:16.610Z,85.34
2019-05-10T03:15:16.590Z,85.34
2019-05-10T03:16:16.600Z,85.34
2019-05-10T03:17:16.578Z,85.03
2019-05-10T03:18:16.557Z,85.14
2019-05-10T03:19:16.544Z,85.03
2019-05-10T03:20:16.534Z,85.14
2019-05-10T03:21:16.543Z,84.93
2019-05-10T03:22:16.515Z,85.03
2019-05-10T03:23:16.505Z,85.14
2019-05-10T03:24:16.515Z,85.34
2019-05-10T03:25:16.492Z,84.93
2019-05-10T03:26:16.511Z,85.34
2019-05-10T03:27:16.452Z,84.63
2019-05-10T03:28:16.447Z,84.72
2019-05-10T03:29:16.443Z,85.34
2019-05-10T03:30:16.420Z,84.63
2019-05-10T03:31:16.412Z,84.63
2019-05-10T03:32:16.412Z,84.93
2019-05-10T03:33:16.413Z,84.83
2019-05-10T03:34:16.422Z,84.83
2019-05-10T03:35:16.372Z,84.63
2019-05-10T03:36:16.349Z,84.83
2019-05-10T03:37:16.397Z,84.63
2019-05-10T03:38:16.399Z,84.58
2019-05-10T03:39:16.319Z,83.97
2019-05-10T03:40:16.313Z,84.07
2019-05-10T03:41:16.296Z,83.66
2019-05-10T03:42:16.276Z,83.70
2019-05-10T03:43:16.287Z,83.76
2019-05-10T03:44:16.256Z,83.66
2019-05-10T03:45:16.249Z,83.97
2019-05-10T03:46:16.239Z,84.28
2019-05-10T03:47:16.232Z,84.28
2019-05-10T03:48:16.228Z,84.17
2019-05-10T03:49:16.205Z,83.66
2019-05-10T03:50:16.203Z,83.87
2019-05-10T03:51:16.187Z,84.52
2019-05-10T03:52:16.170Z,84.52
2019-05-10T03:53:16.171Z,84.17
2019-05-10T03:54:16.142Z,84.22
2019-05-10T03:55:16.130Z,84.58
2019-05-10T03:56:16.123Z,84.83
2019-05-10T03:57:16.132Z,85.44
2019-05-10T03:58:16.104Z,84.93
2019-05-10T03:59:16.098Z,85.20
2019-05-10T04:00:16.092Z,85.34
2019-05-10T04:01:16.073Z,84.99
2019-05-10T04:02:16.062Z,85.03
2019-05-10T04:03:16.059Z,84.93
2019-05-10T04:04:16.050Z,85.14
2019-05-10T04:05:16.025Z,84.93
2019-05-10T04:06:16.019Z,84.79
2019-05-10T04:07:15.999Z,85.14
2019-05-10T04:08:15.984Z,84.99
2019-05-10T04:09:15.973Z,84.58
2019-05-10T04:10:20.287Z,84.89
2019-05-10T04:11:16.980Z,84.38
2019-05-10T04:12:15.950Z,84.38
2019-05-10T04:13:15.965Z,84.07
2019-05-10T04:14:15.930Z,84.17
2019-05-10T04:15:15.924Z,84.03
2019-05-10T04:16:15.900Z,84.07
2019-05-10T04:17:15.885Z,83.73
2019-05-10T04:18:15.881Z,84.14
2019-05-10T04:19:15.870Z,84.03
2019-05-10T04:20:15.856Z,83.42
2019-05-10T04:21:15.843Z,83.83
2019-05-10T04:22:15.828Z,83.93
2019-05-10T04:23:15.833Z,83.89
2019-05-10T04:24:15.809Z,83.52
2019-05-10T04:25:15.792Z,83.73
2019-05-10T04:26:15.824Z,83.18
2019-05-10T04:27:30.681Z,83.28
2019-05-10T04:28:16.762Z,82.97
2019-05-10T04:29:15.754Z,83.07
2019-05-10T04:30:15.745Z,82.46
2019-05-10T04:31:15.755Z,82.46
2019-05-10T04:32:15.723Z,82.05
2019-05-10T04:33:15.704Z,82.42
2019-05-10T04:34:15.693Z,82.63
2019-05-10T04:35:15.693Z,82.53
2019-05-10T04:36:15.673Z,81.71
2019-05-10T04:37:15.667Z,81.81
2019-05-10T04:38:15.653Z,81.51
2019-05-10T04:39:15.722Z,81.60
2019-05-10T04:40:15.629Z,81.60
2019-05-10T04:41:15.615Z,81.30
2019-05-10T04:42:15.639Z,81.10
2019-05-10T04:43:15.605Z,81.10
2019-05-10T04:44:15.591Z,80.89
2019-05-10T04:45:15.580Z,81.40
2019-05-10T04:46:15.564Z,81.81
2019-05-10T04:47:15.563Z,81.51
2019-05-10T04:48:15.543Z,81.51
2019-05-10T04:49:15.528Z,81.20
2019-05-10T04:50:15.516Z,81.60
2019-05-10T04:51:15.509Z,81.71
2019-05-10T04:52:15.504Z,80.99
2019-05-10T04:53:15.497Z,81.20
2019-05-10T04:54:15.484Z,81.30
2019-05-10T04:55:15.468Z,81.51
2019-05-10T04:56:15.464Z,81.40
2019-05-10T04:57:15.440Z,81.60
2019-05-10T04:58:15.431Z,82.12
2019-05-10T04:59:15.439Z,81.51
2019-05-10T05:00:15.419Z,81.10
2019-05-10T05:01:15.402Z,81.40
2019-05-10T05:02:15.428Z,81.30
2019-05-10T05:03:15.371Z,81.40
2019-05-10T05:04:15.371Z,81.71
2019-05-10T05:05:15.374Z,81.51
2019-05-10T05:06:15.346Z,81.71
2019-05-10T05:07:15.335Z,81.16
2019-05-10T05:08:15.327Z,81.51
2019-05-10T05:09:15.305Z,81.40
2019-05-10T05:10:15.294Z,81.40
2019-05-10T05:11:15.290Z,81.46
2019-05-10T05:12:15.282Z,81.37
2019-05-10T05:13:15.267Z,81.37
2019-05-10T05:14:15.252Z,80.96
2019-05-10T05:15:15.257Z,80.85
2019-05-10T05:16:15.275Z,80.55
2019-05-10T05:17:15.216Z,80.55
2019-05-10T05:18:15.205Z,80.75
2019-05-10T05:19:15.196Z,80.91
2019-05-10T05:20:15.188Z,80.91
2019-05-10T05:21:15.173Z,80.91
2019-05-10T05:22:15.173Z,81.02
2019-05-10T05:23:15.171Z,80.61
2019-05-10T05:24:17.148Z,80.82
2019-05-10T05:25:16.124Z,80.10
2019-05-10T05:26:15.115Z,80.27
2019-05-10T05:27:15.114Z,79.96
2019-05-10T05:28:18.464Z,79.86
2019-05-10T05:29:16.104Z,79.86
2019-05-10T05:30:15.099Z,80.27
2019-05-10T05:31:15.062Z,80.16
2019-05-10T05:32:15.055Z,80.27
2019-05-10T05:33:15.042Z,80.27
2019-05-10T05:34:15.049Z,80.23
2019-05-10T05:35:15.602Z,79.21
2019-05-10T05:36:15.012Z,79.21
2019-05-10T05:37:14.991Z,78.91
2019-05-10T05:38:14.996Z,79.11
2019-05-10T05:39:14.979Z,78.70
2019-05-10T05:40:14.994Z,78.30
2019-05-10T05:41:14.951Z,76.73
2019-05-10T05:42:14.942Z,77.03
2019-05-10T05:43:14.929Z,77.14
2019-05-10T05:44:14.919Z,77.44
2019-05-10T05:45:14.911Z,77.24
2019-05-10T05:46:15.001Z,77.14
2019-05-10T05:47:14.880Z,77.20
2019-05-10T05:48:16.167Z,77.00
2019-05-10T05:49:15.855Z,76.90
2019-05-10T05:50:14.846Z,76.90
2019-05-10T05:51:14.887Z,76.18
2019-05-10T05:52:14.832Z,75.67
2019-05-10T05:53:14.812Z,75.54
2019-05-10T05:54:19.993Z,75.84
2019-05-10T05:55:15.792Z,75.09
2019-05-10T05:56:14.941Z,74.79
2019-05-10T05:57:14.768Z,75.09
2019-05-10T05:58:25.685Z,74.65
2019-05-10T05:59:17.532Z,73.70
2019-05-10T06:00:15.747Z,73.30
2019-05-10T06:01:24.283Z,72.04
2019-05-10T06:02:15.737Z,71.84
2019-05-10T06:03:19.493Z,71.80
2019-05-10T06:04:15.705Z,71.91
2019-05-10T06:05:32.784Z,71.70
2019-05-10T06:06:21.286Z,70.68
2019-05-10T06:07:15.657Z,70.15
2019-05-10T06:08:22.955Z,70.55
2019-05-10T06:09:15.642Z,70.52
2019-05-10T06:10:17.414Z,70.32
2019-05-10T06:11:14.617Z,69.91
2019-05-10T06:12:14.614Z,69.10
2019-05-10T06:13:14.628Z,69.10
2019-05-10T06:14:14.579Z,69.81
2019-05-10T06:15:14.577Z,69.40
2019-05-10T06:16:14.922Z,69.60
2019-05-10T06:17:14.550Z,69.20
2019-05-10T06:18:14.539Z,69.07
2019-05-10T06:19:14.537Z,69.00
2019-05-10T06:20:14.517Z,69.10
2019-05-10T06:21:17.821Z,69.10
2019-05-10T06:22:15.513Z,69.40
2019-05-10T06:23:14.483Z,69.51
2019-05-10T06:24:15.867Z,70.42
2019-05-10T06:25:14.474Z,70.21
2019-05-10T06:26:24.050Z,69.91
2019-05-10T06:27:15.437Z,69.88
2019-05-10T06:28:26.241Z,69.60
2019-05-10T06:29:17.765Z,70.52
2019-05-10T06:30:14.405Z,70.18
2019-05-10T06:31:14.401Z,69.78
2019-05-10T06:32:14.383Z,69.47
2019-05-10T06:33:14.375Z,69.24
2019-05-10T06:34:14.391Z,69.54
2019-05-10T06:35:19.313Z,68.32
2019-05-10T06:36:15.337Z,68.83
2019-05-10T06:37:14.349Z,68.83
2019-05-10T06:38:14.319Z,68.02
2019-05-10T06:39:14.305Z,67.61
2019-05-10T06:40:14.325Z,67.11
2019-05-10T06:41:16.787Z,67.11
2019-05-10T06:42:14.272Z,67.72
2019-05-10T06:43:15.629Z,68.15
2019-05-10T06:44:14.252Z,68.66
2019-05-10T06:45:16.046Z,68.05
2019-05-10T06:46:14.246Z,68.66
2019-05-10T06:47:14.209Z,68.56
2019-05-10T06:48:14.207Z,68.90
2019-05-10T06:49:14.193Z,68.15
2019-05-10T06:50:14.194Z,68.15
2019-05-10T06:51:14.170Z,67.95
2019-05-10T06:52:16.318Z,68.29
2019-05-10T06:53:14.151Z,68.29
2019-05-10T06:54:14.136Z,68.08
2019-05-10T06:55:14.122Z,68.46
2019-05-10T06:56:14.118Z,68.76
2019-05-10T06:57:17.378Z,68.87
2019-05-10T06:58:15.107Z,68.66
2019-05-10T06:59:19.043Z,68.87
2019-05-10T07:00:15.093Z,68.23
2019-05-10T07:01:14.062Z,67.82
2019-05-10T07:02:14.056Z,67.51
2019-05-10T07:03:14.063Z,68.02
2019-05-10T07:04:14.031Z,68.02
2019-05-10T07:05:14.010Z,68.93
2019-05-10T07:06:14.004Z,69.13
2019-05-10T07:07:22.090Z,68.49
2019-05-10T07:08:20.204Z,67.89
2019-05-10T07:09:14.969Z,67.35
2019-05-10T07:10:19.131Z,66.84
2019-05-10T07:11:14.967Z,66.54
2019-05-10T07:12:15.145Z,67.55
2019-05-10T07:13:13.941Z,67.96
2019-05-10T07:14:13.913Z,67.76
2019-05-10T07:15:13.919Z,66.33
2019-05-10T07:16:14.560Z,66.33
2019-05-10T07:17:14.896Z,67.05
2019-05-10T07:18:16.786Z,67.14
2019-05-10T07:19:14.859Z,66.94
2019-05-10T07:20:13.845Z,67.05
2019-05-10T07:21:13.839Z,67.22
2019-05-10T07:22:13.835Z,66.61
2019-05-10T07:23:13.834Z,66.61
2019-05-10T07:24:18.163Z,66.67
2019-05-10T07:25:14.790Z,66.88
2019-05-10T07:26:17.500Z,66.14
2019-05-10T07:27:14.769Z,65.16
2019-05-10T07:28:15.916Z,65.36
2019-05-10T07:29:29.017Z,65.67
2019-05-10T07:30:14.733Z,65.47
2019-05-10T07:31:13.720Z,65.97
2019-05-10T07:32:16.423Z,66.38
2019-05-10T07:33:14.716Z,65.97
2019-05-10T07:34:15.788Z,65.67
2019-05-10T07:35:13.680Z,66.88
2019-05-10T07:36:15.223Z,66.38
2019-05-10T07:37:13.664Z,67.72
2019-05-10T07:38:13.656Z,67.72
2019-05-10T07:39:13.641Z,67.93
2019-05-10T07:40:13.631Z,68.46
2019-05-10T07:41:19.760Z,68.26
2019-05-10T07:42:14.606Z,68.56
2019-05-10T07:43:24.998Z,69.17
2019-05-10T07:44:14.575Z,69.17
2019-05-10T07:45:13.574Z,69.07
2019-05-10T07:46:13.555Z,68.94
2019-05-10T07:47:13.551Z,68.33
2019-05-10T07:48:13.538Z,68.94
2019-05-10T07:49:13.559Z,68.13
2019-05-10T07:50:13.513Z,68.13
2019-05-10T07:51:13.501Z,67.72
2019-05-10T07:52:13.490Z,67.62
2019-05-10T07:53:16.470Z,68.19
2019-05-10T07:54:14.474Z,66.85
2019-05-10T07:55:17.883Z,66.24
2019-05-10T07:56:14.443Z,66.95
2019-05-10T07:57:13.435Z,66.61
2019-05-10T07:58:13.455Z,67.02
2019-05-10T07:59:16.317Z,67.12
2019-05-10T08:00:14.403Z,67.69
2019-05-10T08:01:13.395Z,65.91
2019-05-10T08:02:14.915Z,65.50
2019-05-10T08:03:17.750Z,64.93
2019-05-10T08:04:19.744Z,65.43
2019-05-10T08:05:15.446Z,66.24
2019-05-10T08:06:15.373Z,66.64
2019-05-10T08:07:13.331Z,66.17
2019-05-10T08:08:13.317Z,66.88
2019-05-10T08:09:13.329Z,66.98
2019-05-10T08:10:13.293Z,66.88
2019-05-10T08:11:13.284Z,66.98
2019-05-10T08:12:13.273Z,66.67
2019-05-10T08:13:15.418Z,66.50
2019-05-10T08:14:14.262Z,66.61
2019-05-10T08:15:13.276Z,67.18
2019-05-10T08:16:19.543Z,67.79
2019-05-10T08:17:14.214Z,66.98
2019-05-10T08:18:15.430Z,66.27
2019-05-10T08:19:14.261Z,67.29
2019-05-10T08:20:21.392Z,67.46
2019-05-10T08:21:21.911Z,67.15
2019-05-10T08:22:14.874Z,66.35
2019-05-10T08:23:13.238Z,65.20
2019-05-10T08:24:16.525Z,65.40
2019-05-10T08:25:15.414Z,65.67
2019-05-10T08:26:19.706Z,65.34
2019-05-10T08:27:15.010Z,64.50
2019-05-10T08:28:13.089Z,63.46
2019-05-10T08:29:16.736Z,63.13
2019-05-10T08:30:25.503Z,62.63
2019-05-10T08:31:14.095Z,61.82
2019-05-10T08:32:13.043Z,62.12
2019-05-10T08:33:14.345Z,62.25
2019-05-10T08:34:13.029Z,61.14
2019-05-10T08:35:17.209Z,62.05
2019-05-10T08:36:14.012Z,63.36
2019-05-10T08:37:13.014Z,62.99
2019-05-10T08:38:13.142Z,62.51
2019-05-10T08:39:13.957Z,62.71
2019-05-10T08:40:13.026Z,62.95
2019-05-10T08:41:14.676Z,63.96
2019-05-10T08:42:34.628Z,64.26
2019-05-10T08:43:16.628Z,64.70
2019-05-10T08:44:19.272Z,64.39
2019-05-10T08:45:13.905Z,64.46
2019-05-10T08:46:12.889Z,62.64
2019-05-10T08:47:22.371Z,62.82
2019-05-10T08:48:13.906Z,63.67
2019-05-10T08:49:13.062Z,61.01
2019-05-10T08:50:28.894Z,60.58
2019-05-10T08:51:13.835Z,61.29
2019-05-10T08:52:12.820Z,60.45
2019-05-10T08:53:16.279Z,60.52
2019-05-10T08:54:12.800Z,59.08
2019-05-10T08:55:12.804Z,59.69
2019-05-10T08:56:20.598Z,60.39
2019-05-10T08:57:18.632Z,60.89
2019-05-10T08:58:13.808Z,59.56
2019-05-10T08:59:16.360Z,59.56
2019-05-10T09:00:13.766Z,58.75
2019-05-10T09:01:24.238Z,58.25
2019-05-10T09:02:14.671Z,57.20
2019-05-10T09:03:18.391Z,58.14
2019-05-10T09:04:13.893Z,58.87
2019-05-10T09:05:12.730Z,59.60
2019-05-10T09:06:16.706Z,60.87
2019-05-10T09:07:12.665Z,62.11
2019-05-10T09:08:19.571Z,63.15
2019-05-10T09:09:13.685Z,64.49
2019-05-10T09:10:13.028Z,65.43
2019-05-10T09:11:12.616Z,66.98
2019-05-10T09:12:12.625Z,68.94
2019-05-10T09:13:12.946Z,70.25
2019-05-10T09:14:19.752Z,70.89
2019-05-10T09:15:13.903Z,70.89
2019-05-10T09:16:13.655Z,70.69
2019-05-10T09:17:14.792Z,70.01
2019-05-10T09:18:13.542Z,69.92
2019-05-10T09:19:12.592Z,68.70
2019-05-10T09:20:20.727Z,69.24
2019-05-10T09:21:14.248Z,70.01
2019-05-10T09:22:12.563Z,69.10
2019-05-10T09:23:15.233Z,70.21
2019-05-10T09:24:13.475Z,68.09
2019-05-10T09:25:13.004Z,68.66
2019-05-10T09:26:16.352Z,68.02
2019-05-10T09:27:12.935Z,68.13
2019-05-10T09:28:16.893Z,68.80
2019-05-10T09:29:12.415Z,67.35
2019-05-10T09:30:14.228Z,66.85
2019-05-10T09:31:20.836Z,66.52
2019-05-10T09:32:13.384Z,64.76
2019-05-10T09:33:14.238Z,64.73
2019-05-10T09:34:12.357Z,64.61
2019-05-10T09:35:12.934Z,63.09
2019-05-10T09:36:12.613Z,63.96
2019-05-10T09:37:14.277Z,62.73
2019-05-10T09:38:13.319Z,60.08
2019-05-10T09:39:17.777Z,61.16
2019-05-10T09:40:13.710Z,62.90
2019-05-10T09:41:12.282Z,63.10
2019-05-10T09:42:24.972Z,60.13
2019-05-10T09:43:14.902Z,59.73
2019-05-10T09:44:13.051Z,61.17
2019-05-10T09:45:13.006Z,62.01
2019-05-10T09:46:14.184Z,63.65
2019-05-10T09:47:12.211Z,65.30
2019-05-10T09:48:12.351Z,66.55
2019-05-10T09:49:17.801Z,67.99
2019-05-10T09:50:13.178Z,69.74
2019-05-10T09:51:13.736Z,70.86
2019-05-10T09:52:13.409Z,72.01
2019-05-10T09:53:15.346Z,71.73
2019-05-10T09:54:12.133Z,73.86
2019-05-10T09:55:14.698Z,74.00
2019-05-10T09:56:12.129Z,75.15
2019-05-10T09:57:12.098Z,75.76
2019-05-10T09:58:12.096Z,76.61
2019-05-10T09:59:12.081Z,76.61
2019-05-10T10:00:12.076Z,76.91
2019-05-10T10:01:18.132Z,78.17
2019-05-10T10:02:15.651Z,79.59
2019-05-10T10:03:13.241Z,82.03
2019-05-10T10:04:12.020Z,82.53
2019-05-10T10:05:12.010Z,82.59
2019-05-10T10:06:12.002Z,82.29
2019-05-10T10:07:11.992Z,82.90
2019-05-10T10:08:12.015Z,81.07
2019-05-10T10:09:11.971Z,82.35
2019-05-10T10:10:12.602Z,81.74
2019-05-10T10:11:15.661Z,80.59
2019-05-10T10:12:12.933Z,80.39
2019-05-10T10:13:14.075Z,81.67
2019-05-10T10:14:11.926Z,81.97
2019-05-10T10:15:18.651Z,82.24
2019-05-10T10:16:14.941Z,80.38
2019-05-10T10:17:11.882Z,79.93
2019-05-10T10:18:12.467Z,72.92
2019-05-10T10:19:12.856Z,73.46
2019-05-10T10:20:11.885Z,74.43
2019-05-10T10:21:13.207Z,75.31
2019-05-10T10:22:13.255Z,74.80
2019-05-10T10:23:11.815Z,71.87
2019-05-10T10:24:17.143Z,73.55
2019-05-10T10:25:12.831Z,70.66
2019-05-10T10:26:12.663Z,72.00
2019-05-10T10:27:12.769Z,73.93
2019-05-10T10:28:16.867Z,70.02
2019-05-10T10:29:12.748Z,71.44
2019-05-10T10:30:14.991Z,71.47
2019-05-10T10:31:26.225Z,68.13
2019-05-10T10:32:12.720Z,70.59
2019-05-10T10:33:17.773Z,69.51
2019-05-10T10:34:12.695Z,71.44
2019-05-10T10:35:13.236Z,71.50
2019-05-10T10:36:12.662Z,70.08
2019-05-10T10:37:14.533Z,72.92
2019-05-10T10:38:12.658Z,74.04
2019-05-10T10:39:11.637Z,73.76
2019-05-10T10:40:14.977Z,72.41
2019-05-10T10:41:11.615Z,73.76
2019-05-10T10:42:13.215Z,73.46
2019-05-10T10:43:11.600Z,73.12
2019-05-10T10:44:11.579Z,74.13
2019-05-10T10:45:11.565Z,75.25
2019-05-10T10:46:12.629Z,73.93
2019-05-10T10:47:11.556Z,74.95
2019-05-10T10:48:13.074Z,69.74
2019-05-10T10:49:14.357Z,70.86
2019-05-10T10:50:13.675Z,71.44
2019-05-10T10:51:11.503Z,70.76
2019-05-10T10:52:13.475Z,71.44
2019-05-10T10:53:11.475Z,68.70
2019-05-10T10:54:11.466Z,71.44
2019-05-10T10:55:13.353Z,70.93
2019-05-10T10:56:11.465Z,67.99
2019-05-10T10:57:11.435Z,68.70
2019-05-10T10:58:11.428Z,68.90
2019-05-10T10:59:11.419Z,69.31
2019-05-10T11:00:11.406Z,68.16
2019-05-10T11:01:21.362Z,67.46
2019-05-10T11:02:33.431Z,65.94
2019-05-10T11:03:12.363Z,64.55
2019-05-10T11:04:11.359Z,66.67
2019-05-10T11:05:11.355Z,65.43
2019-05-10T11:06:11.336Z,63.21
2019-05-10T11:07:11.408Z,65.26
2019-05-10T11:08:11.355Z,65.84
2019-05-10T11:09:11.302Z,65.43
2019-05-10T11:10:18.161Z,64.59
2019-05-10T11:11:12.332Z,65.10
2019-05-10T11:12:14.560Z,66.38
2019-05-10T11:13:18.812Z,66.89
2019-05-10T11:14:12.489Z,64.06
2019-05-10T11:15:11.607Z,66.55
2019-05-10T11:16:15.773Z,65.04
2019-05-10T11:17:11.242Z,62.68
2019-05-10T11:18:11.210Z,64.30
2019-05-10T11:19:15.458Z,61.77
2019-05-10T11:20:11.711Z,62.59
2019-05-10T11:21:11.815Z,65.11
2019-05-10T11:22:11.299Z,62.48
2019-05-10T11:23:11.168Z,64.58
2019-05-10T11:24:18.075Z,66.29
2019-05-10T11:25:13.063Z,64.54
2019-05-10T11:26:11.121Z,61.01
2019-05-10T11:27:15.185Z,61.21
2019-05-10T11:28:12.174Z,62.12
2019-05-10T11:29:14.215Z,58.39
2019-05-10T11:30:12.392Z,61.55
2019-05-10T11:31:11.503Z,62.65
2019-05-10T11:32:16.257Z,61.14
2019-05-10T11:33:26.027Z,59.42
2019-05-10T11:34:12.053Z,60.66
2019-05-10T11:35:11.927Z,59.08
2019-05-10T11:36:12.008Z,60.49
2019-05-10T11:37:10.999Z,60.62
2019-05-10T11:38:12.938Z,62.27
2019-05-10T11:39:25.714Z,62.57
2019-05-10T11:40:11.962Z,62.27
2019-05-10T11:41:13.516Z,62.81
2019-05-10T11:42:15.404Z,63.24
2019-05-10T11:43:10.949Z,64.93
2019-05-10T11:44:12.049Z,65.97
2019-05-10T11:45:11.172Z,65.90
2019-05-10T11:46:11.787Z,68.23
2019-05-10T11:47:22.992Z,69.34
2019-05-10T11:48:11.899Z,69.34
2019-05-10T11:49:10.859Z,69.34
2019-05-10T11:50:10.894Z,68.60
2019-05-10T11:51:16.039Z,69.01
2019-05-10T11:52:13.280Z,68.40
2019-05-10T11:53:13.391Z,67.35
2019-05-10T11:54:11.800Z,69.04
2019-05-10T11:55:11.455Z,69.01
2019-05-10T11:57:13.853Z,65.44
2019-05-10T11:58:13.169Z,67.46
2019-05-10T11:59:04.923Z,67.29
2019-05-10T11:59:15.892Z,62.88
2019-05-10T12:00:24.624Z,60.97
2019-05-10T12:01:17.630Z,63.70
2019-05-10T12:02:33.828Z,61.27
2019-05-10T12:03:18.147Z,60.84
2019-05-10T12:04:22.695Z,60.51
2019-05-10T12:05:19.897Z,61.82
2019-05-10T12:06:12.279Z,59.70
2019-05-10T12:07:12.914Z,63.03
2019-05-10T12:08:13.067Z,61.59
2019-05-10T12:09:12.546Z,61.52
2019-05-10T12:10:18.391Z,63.43
2019-05-10T12:12:12.467Z,62.12
2019-05-10T12:13:18.630Z,61.99
2019-05-10T12:14:13.810Z,61.39
2019-05-10T12:15:13.753Z,61.69
2019-05-10T12:16:16.109Z,60.85
2019-05-10T12:17:14.247Z,60.33
2019-05-10T12:18:14.749Z,57.04
2019-05-10T12:19:20.593Z,57.53
2019-05-10T12:20:16.343Z,51.49
2019-05-10T12:21:11.554Z,50.81
2019-05-10T12:22:15.887Z,50.01
2019-05-10T12:23:13.142Z,52.92
2019-05-10T12:24:32.849Z,50.09
2019-05-10T12:25:36.268Z,49.86
2019-05-10T12:26:31.160Z,63.00
2019-05-10T12:27:24.861Z,51.86
2019-05-10T12:28:15.358Z,53.02
2019-05-10T12:29:16.028Z,54.58
2019-05-10T12:30:11.684Z,56.35
2019-05-10T12:31:15.097Z,57.01
2019-05-10T12:32:11.387Z,59.45
2019-05-10T12:33:23.642Z,61.33
2019-05-10T12:34:14.477Z,62.47
2019-05-10T12:35:11.741Z,65.36
2019-05-10T12:36:21.581Z,65.39
2019-05-10T12:37:11.327Z,65.56
2019-05-10T12:38:11.321Z,67.55
2019-05-10T12:39:11.556Z,69.47
2019-05-10T12:40:14.867Z,69.95
2019-05-10T12:41:11.276Z,70.79
2019-05-10T12:42:13.990Z,73.83
2019-05-10T12:43:11.012Z,74.38
2019-05-10T12:44:11.208Z,75.40
2019-05-10T12:45:10.233Z,76.04
2019-05-10T12:46:10.578Z,75.63
2019-05-10T12:47:11.412Z,74.82
2019-05-10T12:48:10.204Z,74.92
2019-05-10T12:49:12.027Z,72.38
2019-05-10T12:50:10.214Z,73.50
2019-05-10T12:51:15.192Z,72.38
2019-05-10T12:52:14.035Z,73.46
2019-05-10T12:53:15.422Z,75.29